Time;durP1;ratioP1;P1;durP2;ratioP2;P2;SDS_P1;SDS_P2;PMS_P1;PMS_P2;Temp;Humidity;BMP_temperature;BMP_pressure;BME280_temperature;BME280_humidity;BME280_pressure;Samples;Min_cycle;Max_cycle;Signal;HPM_P1;HPM_P2
2023/06/28 00:01:43;;;;;;;5.30;3.50;;;;;;;;;;4386194;32;66435;-58
2023/06/28 00:04:31;;;;;;;6.35;3.92;;;;;;;;;;4375467;32;71283;-59
2023/06/28 00:07:17;;;;;;;6.18;3.22;;;;;;;;;;4396916;32;65096;-59
2023/06/28 00:10:04;;;;;;;5.82;3.58;;;;;;;;;;4385803;32;69057;-59
2023/06/28 00:12:51;;;;;;;5.70;3.58;;;;;;;;;;4375312;32;59130;-59
2023/06/28 00:15:38;;;;;;;5.28;3.20;;;;;;;;;;4396688;32;70457;-59
2023/06/28 00:18:26;;;;;;;5.53;3.50;;;;;;;;;;4386067;32;69282;-59
2023/06/28 00:21:13;;;;;;;5.05;3.42;;;;;;;;;;4386157;32;67684;-59
2023/06/28 00:24:00;;;;;;;5.72;3.28;;;;;;;;;;4386467;32;60119;-59
2023/06/28 00:26:47;;;;;;;4.72;3.40;;;;;;;;;;4396659;32;70809;-59
2023/06/28 00:29:33;;;;;;;;;;;;;;;;;;4386213;32;68275;-59
2023/06/28 00:32:20;;;;;;;5.00;3.30;;;;;;;;;;4385328;32;68351;-59
2023/06/28 00:35:07;;;;;;;8.27;3.80;;;;;;;;;;4375380;32;70839;-59
2023/06/28 00:37:55;;;;;;;5.65;3.75;;;;;;;;;;4385935;32;65769;-58
2023/06/28 00:40:41;;;;;;;6.37;3.87;;;;;;;;;;4386070;32;67830;-58
2023/06/28 00:43:28;;;;;;;5.85;3.12;;;;;;;;;;4396701;32;60544;-59
2023/06/28 00:46:15;;;;;;;6.53;3.58;;;;;;;;;;4385797;32;70714;-59
2023/06/28 00:49:02;;;;;;;6.25;3.37;;;;;;;;;;4385945;32;65894;-59
2023/06/28 00:51:50;;;;;;;7.15;3.53;;;;;;;;;;4385143;32;68649;-59
2023/06/28 00:54:37;;;;;;;5.30;3.30;;;;;;;;;;4385911;32;59179;-59
2023/06/28 00:57:24;;;;;;;6.45;3.65;;;;;;;;;;4375121;32;70373;-58
2023/06/28 01:00:12;;;;;;;6.62;3.58;;;;;;;;;;4404688;32;68352;-60
2023/06/28 01:03:00;;;;;;;5.10;3.60;;;;;;;;;;4367205;32;67250;-59
2023/06/28 01:05:50;;;;;;;6.22;3.62;;;;;;;;;;4399389;32;71545;-58
2023/06/28 01:08:36;;;;;;;5.78;3.55;;;;;;;;;;4377518;32;70801;-59
2023/06/28 01:11:23;;;;;;;5.75;3.60;;;;;;;;;;4377171;32;69144;-58
2023/06/28 01:14:10;;;;;;;6.22;3.85;;;;;;;;;;4388018;32;67586;-58
2023/06/28 01:16:56;;;;;;;;;;;;;;;;;;4377892;32;70752;-59
2023/06/28 01:19:43;;;;;;;4.57;3.53;;;;;;;;;;4400336;32;65270;-58
2023/06/28 01:22:31;;;;;;;7.05;3.67;;;;;;;;;;4399657;32;67799;-58
2023/06/28 01:25:17;;;;;;;8.25;4.00;;;;;;;;;;4392831;32;60106;-59
2023/06/28 01:28:05;;;;;;;6.03;4.00;;;;;;;;;;4398761;32;69743;-60
2023/06/28 01:30:52;;;;;;;7.90;4.10;;;;;;;;;;4388081;32;69349;-59
2023/06/28 01:33:42;;;;;;;7.00;3.90;;;;;;;;;;4376820;32;69169;-59
2023/06/28 01:36:29;;;;;;;9.10;4.50;;;;;;;;;;4398878;32;60023;-59
2023/06/28 01:39:18;;;;;;;7.62;4.22;;;;;;;;;;4387866;32;70290;-59
2023/06/28 01:42:04;;;;;;;7.20;4.18;;;;;;;;;;4386917;32;70288;-59
2023/06/28 01:44:51;;;;;;;7.03;4.05;;;;;;;;;;4377017;32;68333;-58
2023/06/28 01:47:38;;;;;;;8.18;4.45;;;;;;;;;;4387711;32;71697;-59
2023/06/28 01:50:25;;;;;;;7.95;4.50;;;;;;;;;;4376959;32;66947;-60
2023/06/28 01:53:12;;;;;;;9.48;4.80;;;;;;;;;;4377301;32;67107;-59
2023/06/28 01:55:59;;;;;;;8.52;3.92;;;;;;;;;;4377377;32;59078;-59
2023/06/28 01:58:45;;;;;;;8.23;4.40;;;;;;;;;;4399568;32;71796;-58
2023/06/28 02:01:32;;;;;;;6.82;4.40;;;;;;;;;;4398422;32;65115;-59
2023/06/28 02:04:19;;;;;;;7.37;4.72;;;;;;;;;;4377036;32;66664;-58
2023/06/28 02:07:06;;;;;;;8.80;4.53;;;;;;;;;;4387824;32;59959;-59
2023/06/28 02:09:53;;;;;;;8.43;4.40;;;;;;;;;;4376823;32;70747;-58
2023/06/28 02:12:40;;;;;;;;;;;;;;;;;;4399324;32;68543;-58
2023/06/28 02:15:26;;;;;;;11.20;5.22;;;;;;;;;;4398537;32;67444;-59
2023/06/28 02:18:16;;;;;;;;;;;;;;;;;;4365747;32;72755;-59
2023/06/28 02:21:03;;;;;;;11.60;5.55;;;;;;;;;;4376695;32;66957;-59
2023/06/28 02:23:49;;;;;;;10.63;5.65;;;;;;;;;;4375893;32;70200;-59
2023/06/28 02:26:37;;;;;;;12.40;5.35;;;;;;;;;;4387552;32;67954;-58
2023/06/28 02:29:24;;;;;;;10.48;5.35;;;;;;;;;;4365632;32;71496;-58
2023/06/28 02:32:11;;;;;;;12.43;5.53;;;;;;;;;;4397426;32;66778;-59
2023/06/28 02:34:58;;;;;;;13.07;5.85;;;;;;;;;;4387201;32;66632;-58
2023/06/28 02:37:44;;;;;;;9.85;5.10;;;;;;;;;;4376677;32;60426;-59
2023/06/28 02:40:31;;;;;;;8.88;4.87;;;;;;;;;;4376001;32;71229;-58
2023/06/28 02:43:18;;;;;;;7.07;5.12;;;;;;;;;;4387332;32;69566;-60
2023/06/28 02:46:05;;;;;;;8.20;4.60;;;;;;;;;;4376711;32;67437;-58
2023/06/28 02:48:53;;;;;;;5.53;4.12;;;;;;;;;;4387114;32;59925;-59
2023/06/28 02:51:39;;;;;;;7.82;3.85;;;;;;;;;;4398126;32;70230;-59
2023/06/28 02:54:26;;;;;;;6.10;4.20;;;;;;;;;;4376679;32;69103;-59
2023/06/28 02:57:13;;;;;;;;;;;;;;;;;;4387868;32;67564;-60
2023/06/28 03:00:00;;;;;;;5.97;3.77;;;;;;;;;;4390516;32;72392;-59
2023/06/28 03:02:47;;;;;;;7.05;4.37;;;;;;;;;;4387480;32;66987;-60
2023/06/28 03:05:34;;;;;;;;;;;;;;;;;;4398003;32;67586;-58
2023/06/28 03:08:20;;;;;;;5.75;3.50;;;;;;;;;;4402071;32;59677;-59
2023/06/28 03:11:08;;;;;;;5.97;3.70;;;;;;;;;;4377298;32;70445;-59
2023/06/28 03:13:54;;;;;;;5.72;3.78;;;;;;;;;;4398932;32;65906;-59
2023/06/28 03:16:41;;;;;;;6.07;3.53;;;;;;;;;;4386732;32;66852;-59
2023/06/28 03:19:29;;;;;;;7.00;3.50;;;;;;;;;;4376543;32;59832;-58
2023/06/28 03:22:16;;;;;;;7.25;3.42;;;;;;;;;;4364308;32;70164;-60
2023/06/28 03:25:04;;;;;;;;;;;;;;;;;;4387188;32;69343;-59
2023/06/28 03:27:51;;;;;;;6.25;3.15;;;;;;;;;;4397884;32;67099;-59
2023/06/28 03:30:38;;;;;;;4.93;3.37;;;;;;;;;;4385661;32;71577;-58
2023/06/28 03:33:26;;;;;;;6.32;3.60;;;;;;;;;;4386916;32;64953;-59
2023/06/28 03:36:12;;;;;;;5.87;3.60;;;;;;;;;;4398246;32;68531;-59
2023/06/28 03:38:59;;;;;;;7.12;3.60;;;;;;;;;;4397327;32;67481;-58
2023/06/28 03:41:46;;;;;;;;;;;;;;;;;;4386960;32;70743;-59
2023/06/28 03:44:32;;;;;;;5.50;3.50;;;;;;;;;;4397266;32;65921;-59
2023/06/28 03:47:19;;;;;;;5.12;3.28;;;;;;;;;;4386427;32;67085;-59
2023/06/28 03:50:08;;;;;;;7.72;3.50;;;;;;;;;;4386844;32;60193;-59
2023/06/28 03:52:54;;;;;;;5.50;3.20;;;;;;;;;;4386474;32;70365;-60
2023/06/28 03:55:41;;;;;;;5.87;3.67;;;;;;;;;;4386246;32;69185;-59
2023/06/28 03:58:28;;;;;;;6.30;3.45;;;;;;;;;;4386351;32;66838;-60
2023/06/28 04:01:15;;;;;;;5.70;3.30;;;;;;;;;;4397204;32;59861;-59
2023/06/28 04:04:02;;;;;;;6.72;3.58;;;;;;;;;;4375578;32;70347;-59
2023/06/28 04:06:49;;;;;;;5.07;3.15;;;;;;;;;;4375762;32;68291;-60
2023/06/28 04:09:37;;;;;;;10.30;3.58;;;;;;;;;;4386249;32;67889;-59
2023/06/28 04:12:25;;;;;;;4.82;3.15;;;;;;;;;;4385994;32;71969;-60
2023/06/28 04:15:12;;;;;;;7.87;4.45;;;;;;;;;;4375538;32;65830;-59
2023/06/28 04:17:59;;;;;;;5.70;3.60;;;;;;;;;;4396860;32;67030;-60
2023/06/28 04:20:46;;;;;;;6.53;3.30;;;;;;;;;;4375754;32;59333;-58
2023/06/28 04:23:32;;;;;;;5.90;3.37;;;;;;;;;;4385408;32;70269;-59
2023/06/28 04:26:19;;;;;;;5.22;3.28;;;;;;;;;;4396922;32;65723;-59
2023/06/28 04:29:06;;;;;;;4.03;3.00;;;;;;;;;;4386024;32;68151;-59
2023/06/28 04:31:59;;;;;;;5.78;3.78;;;;;;;;;;4386568;32;60200;-59
2023/06/28 04:34:46;;;;;;;4.30;3.10;;;;;;;;;;4398644;32;69530;-59
2023/06/28 04:37:33;;;;;;;4.85;3.35;;;;;;;;;;4399711;32;68456;-60
2023/06/28 04:40:19;;;;;;;7.15;3.78;;;;;;;;;;4388644;32;67771;-59
2023/06/28 04:43:10;;;;;;;;;;;;;;;;;;4389055;32;71658;-59
2023/06/28 04:45:56;;;;;;;6.05;3.50;;;;;;;;;;4399776;32;65937;-59
2023/06/28 04:48:42;;;;;;;;;;;;;;;;;;4389422;32;67746;-60
2023/06/28 04:51:29;;;;;;;5.32;3.33;;;;;;;;;;4389061;32;67827;-59
2023/06/28 04:54:17;;;;;;;4.93;3.12;;;;;;;;;;4389453;32;70685;-59
2023/06/28 04:57:04;;;;;;;6.30;3.37;;;;;;;;;;4388831;32;65735;-58
2023/06/28 04:59:50;;;;;;;4.93;3.17;;;;;;;;;;4403557;32;67510;-59
2023/06/28 05:02:37;;;;;;;;;;;;;;;;;;4392721;32;60417;-59
2023/06/28 05:05:24;;;;;;;5.30;3.40;;;;;;;;;;4388782;32;69991;-59
2023/06/28 05:08:11;;;;;;;6.85;3.58;;;;;;;;;;4388168;32;69456;-59
2023/06/28 05:10:58;;;;;;;5.03;3.50;;;;;;;;;;4398893;32;67875;-60
2023/06/28 05:13:45;;;;;;;4.35;3.00;;;;;;;;;;4399251;32;71732;-59
2023/06/28 05:16:32;;;;;;;4.43;3.15;;;;;;;;;;4388230;32;70359;-59
2023/06/28 05:19:18;;;;;;;;;;;;;;;;;;4388470;32;69655;-58
2023/06/28 05:22:05;;;;;;;5.73;3.00;;;;;;;;;;4388480;32;67579;-58
2023/06/28 05:24:52;;;;;;;4.32;3.03;;;;;;;;;;4376415;32;72769;-59
2023/06/28 05:27:39;;;;;;;4.85;3.10;;;;;;;;;;4398798;32;65114;-60
2023/06/28 05:30:26;;;;;;;4.62;2.95;;;;;;;;;;4366475;32;67593;-59
2023/06/28 05:33:13;;;;;;;5.28;3.00;;;;;;;;;;4376985;32;59811;-59
2023/06/28 05:35:59;;;;;;;6.37;3.33;;;;;;;;;;4398357;32;69430;-60
2023/06/28 05:38:46;;;;;;;;;;;;;;;;;;4398925;32;69061;-59
2023/06/28 05:41:33;;;;;;;4.60;2.73;;;;;;;;;;4398740;32;67466;-59
2023/06/28 05:44:21;;;;;;;;;;;;;;;;;;4387680;32;60752;-59
2023/06/28 05:47:07;;;;;;;3.83;2.75;;;;;;;;;;4399005;32;70059;-59
2023/06/28 05:49:54;;;;;;;4.47;3.20;;;;;;;;;;4388644;32;69948;-58
2023/06/28 05:52:40;;;;;;;;;;;;;;;;;;4378848;32;67469;-58
2023/06/28 05:55:27;;;;;;;4.10;2.97;;;;;;;;;;4387499;32;72714;-60
2023/06/28 05:58:14;;;;;;;;;;;;;;;;;;4377654;32;64616;-58
2023/06/28 06:01:01;;;;;;;5.50;2.80;;;;;;;;;;4388266;32;67247;-59
2023/06/28 06:03:48;;;;;;;8.20;2.67;;;;;;;;;;4398396;32;67678;-58
2023/06/28 06:06:35;;;;;;;2.78;2.30;;;;;;;;;;4375950;32;72378;-57
2023/06/28 06:09:22;;;;;;;4.85;2.58;;;;;;;;;;4398246;32;64918;-60
2023/06/28 06:12:08;;;;;;;;;;;;;;;;;;4377012;32;67402;-58
2023/06/28 06:14:57;;;;;;;4.40;2.53;;;;;;;;;;4398490;32;59654;-58
2023/06/28 06:17:43;;;;;;;3.62;2.45;;;;;;;;;;4387351;32;71015;-59
2023/06/28 06:20:31;;;;;;;;;;;;;;;;;;4376462;32;69963;-57
2023/06/28 06:23:21;;;;;;;4.70;2.62;;;;;;;;;;4398776;32;67196;-58
2023/06/28 06:26:08;;;;;;;3.47;2.08;;;;;;;;;;4387848;32;72018;-59
2023/06/28 06:28:55;;;;;;;3.40;2.55;;;;;;;;;;4375985;32;70855;-59
2023/06/28 06:31:42;;;;;;;3.80;2.60;;;;;;;;;;4377018;32;68273;-59
2023/06/28 06:34:28;;;;;;;;;;;;;;;;;;4365652;32;68412;-58
2023/06/28 06:37:15;;;;;;;3.50;2.45;;;;;;;;;;4400037;32;71226;-58
2023/06/28 06:40:02;;;;;;;;;;;;;;;;;;4390854;32;65877;-58
2023/06/28 06:42:49;;;;;;;6.35;2.80;;;;;;;;;;4398209;32;68268;-58
2023/06/28 06:45:36;;;;;;;4.22;2.67;;;;;;;;;;4375805;32;58575;-57
2023/06/28 06:48:24;;;;;;;3.55;2.42;;;;;;;;;;4376468;32;69519;-59
2023/06/28 06:51:10;;;;;;;3.35;2.50;;;;;;;;;;4376445;32;69587;-58
2023/06/28 06:53:57;;;;;;;4.97;2.58;;;;;;;;;;4398961;32;66885;-58
2023/06/28 06:56:43;;;;;;;5.57;2.47;;;;;;;;;;4397544;32;59164;-59
2023/06/28 06:59:31;;;;;;;4.72;2.60;;;;;;;;;;4380310;32;70395;-58
2023/06/28 07:02:19;;;;;;;3.28;2.62;;;;;;;;;;4403072;32;68430;-58
2023/06/28 07:05:06;;;;;;;3.65;2.85;;;;;;;;;;4387371;32;66840;-58
2023/06/28 07:07:54;;;;;;;;;;;;;;;;;;4376610;32;71457;-59
2023/06/28 07:10:41;;;;;;;4.47;2.55;;;;;;;;;;4375567;32;67422;-59
2023/06/28 07:13:28;;;;;;;4.20;2.90;;;;;;;;;;4375509;32;68913;-58
2023/06/28 07:16:15;;;;;;;4.30;2.65;;;;;;;;;;4365228;32;61011;-57
2023/06/28 07:19:02;;;;;;;4.05;2.45;;;;;;;;;;4376089;32;71634;-59
2023/06/28 07:21:49;;;;;;;3.70;2.60;;;;;;;;;;4386854;32;66420;-57
2023/06/28 07:24:36;;;;;;;5.20;3.10;;;;;;;;;;4386877;32;67924;-59
2023/06/28 07:27:23;;;;;;;4.00;2.65;;;;;;;;;;4376030;32;60865;-58
2023/06/28 07:30:10;;;;;;;;;;;;;;;;;;4397741;32;70975;-58
2023/06/28 07:33:00;;;;;;;2.97;2.53;;;;;;;;;;4397291;32;69624;-57
2023/06/28 07:35:46;;;;;;;3.50;2.47;;;;;;;;;;4397165;32;67796;-59
2023/06/28 07:38:33;;;;;;;4.50;2.75;;;;;;;;;;4386330;32;72042;-57
2023/06/28 07:41:20;;;;;;;;;;;;;;;;;;4397901;32;66242;-58
2023/06/28 07:44:07;;;;;;;4.35;2.78;;;;;;;;;;4397178;32;68645;-57
2023/06/28 07:46:53;;;;;;;3.72;2.45;;;;;;;;;;4397046;32;66819;-60
2023/06/28 07:49:40;;;;;;;4.55;2.65;;;;;;;;;;4385525;32;71496;-58
2023/06/28 07:52:26;;;;;;;;;;;;;;;;;;4386806;32;65031;-58
2023/06/28 07:55:13;;;;;;;4.65;2.92;;;;;;;;;;4398252;32;68206;-60
2023/06/28 07:58:01;;;;;;;4.37;3.00;;;;;;;;;;4364731;32;59977;-58
2023/06/28 08:00:48;;;;;;;5.70;3.00;;;;;;;;;;4386527;32;70757;-58
2023/06/28 08:03:36;;;;;;;3.67;2.53;;;;;;;;;;4397098;32;69153;-57
2023/06/28 08:06:23;;;;;;;4.87;3.05;;;;;;;;;;4397618;32;66656;-58
2023/06/28 08:09:11;;;;;;;4.22;2.75;;;;;;;;;;4396988;32;59359;-58
2023/06/28 08:11:57;;;;;;;4.22;2.80;;;;;;;;;;4385809;32;70452;-59
2023/06/28 08:14:44;;;;;;;;;;;;;;;;;;4397341;32;69324;-59
2023/06/28 08:17:30;;;;;;;4.03;2.33;;;;;;;;;;4374992;32;68295;-59
2023/06/28 08:20:16;;;;;;;6.57;3.08;;;;;;;;;;4396562;32;71751;-58
2023/06/28 08:23:03;;;;;;;;;;;;;;;;;;4387006;32;65012;-59
2023/06/28 08:25:50;;;;;;;5.40;2.72;;;;;;;;;;4397130;32;67589;-58
2023/06/28 08:28:36;;;;;;;4.05;2.80;;;;;;;;;;4386219;32;60416;-58
2023/06/28 08:31:24;;;;;;;3.80;2.62;;;;;;;;;;4374596;32;72527;-58
2023/06/28 08:34:10;;;;;;;;;;;;;;;;;;4398626;32;65737;-58
2023/06/28 08:36:56;;;;;;;4.20;2.80;;;;;;;;;;4398327;32;67353;-59
2023/06/28 08:39:43;;;;;;;6.43;2.60;;;;;;;;;;4398293;32;60038;-57
2023/06/28 08:42:30;;;;;;;3.87;2.45;;;;;;;;;;4397969;32;70408;-58
2023/06/28 08:45:17;;;;;;;3.83;2.67;;;;;;;;;;4384930;32;70684;-57
2023/06/28 08:48:04;;;;;;;4.25;2.80;;;;;;;;;;4375226;32;66872;-59
2023/06/28 08:50:52;;;;;;;4.37;2.90;;;;;;;;;;4374717;32;71551;-58
2023/06/28 08:53:44;;;;;;;3.65;2.75;;;;;;;;;;4375332;32;65714;-59
2023/06/28 08:56:30;;;;;;;4.97;3.17;;;;;;;;;;4386012;32;69744;-59
2023/06/28 08:59:17;;;;;;;3.35;2.58;;;;;;;;;;4388477;32;67683;-59
2023/06/28 09:02:03;;;;;;;;;;;;;;;;;;4390712;32;70796;-59
2023/06/28 09:04:51;;;;;;;2.92;2.40;;;;;;;;;;4385073;32;67467;-59
2023/06/28 09:07:40;;;;;;;4.70;2.97;;;;;;;;;;4385567;32;67622;-58
2023/06/28 09:10:26;;;;;;;2.53;2.05;;;;;;;;;;4396366;32;60245;-58
2023/06/28 09:13:19;;;;;;;4.15;2.50;;;;;;;;;;4395979;32;69548;-58
2023/06/28 09:16:09;;;;;;;3.08;2.40;;;;;;;;;;4396302;32;69736;-58
2023/06/28 09:18:56;;;;;;;4.47;2.50;;;;;;;;;;4385813;32;67681;-58
2023/06/28 09:21:44;;;;;;;3.92;2.60;;;;;;;;;;4388397;32;60351;-59
2023/06/28 09:24:38;;;;;;;3.62;2.47;;;;;;;;;;4377331;32;71212;-57
2023/06/28 09:27:24;;;;;;;4.05;2.58;;;;;;;;;;4398961;32;69468;-58
2023/06/28 09:30:26;;;;;;;3.95;2.20;;;;;;;;;;4398881;32;67072;-58
2023/06/28 09:33:12;;;;;;;3.22;2.50;;;;;;;;;;4398438;32;71118;-59
2023/06/28 09:35:59;;;;;;;;;;;;;;;;;;4388216;32;65614;-59
2023/06/28 09:38:46;;;;;;;5.05;2.37;;;;;;;;;;4377579;32;68132;-59
2023/06/28 09:41:38;;;;;;;;;;;;;;;;;;4388447;32;59213;-59
2023/06/28 09:44:30;;;;;;;3.80;2.70;;;;;;;;;;4387350;32;70981;-58
2023/06/28 09:47:16;;;;;;;3.37;2.35;;;;;;;;;;4387124;32;67225;-59
2023/06/28 09:50:04;;;;;;;4.12;2.70;;;;;;;;;;4387643;32;68123;-59
2023/06/28 09:52:50;;;;;;;3.12;2.35;;;;;;;;;;4377275;32;59797;-58
2023/06/28 09:55:41;;;;;;;3.65;2.50;;;;;;;;;;4398266;32;69594;-59
2023/06/28 09:58:28;;;;;;;3.75;2.62;;;;;;;;;;4398321;32;69403;-59
2023/06/28 10:01:18;;;;;;;3.40;2.37;;;;;;;;;;4397664;32;66918;-58
2023/06/28 10:04:07;;;;;;;2.90;2.30;;;;;;;;;;4398215;32;71316;-59
2023/06/28 10:06:59;;;;;;;2.75;2.17;;;;;;;;;;4387950;32;65036;-58
2023/06/28 10:09:46;;;;;;;3.78;2.37;;;;;;;;;;4377591;32;67674;-57
2023/06/28 10:12:33;;;;;;;6.10;2.35;;;;;;;;;;4356157;32;68848;-59
2023/06/28 10:15:23;;;;;;;3.95;2.20;;;;;;;;;;4369095;32;70864;-58
2023/06/28 10:18:10;;;;;;;4.10;2.50;;;;;;;;;;4367918;32;66211;-60
2023/06/28 10:21:02;;;;;;;2.80;2.05;;;;;;;;;;4356996;32;68384;-59
2023/06/28 10:23:49;;;;;;;3.40;2.28;;;;;;;;;;4357507;32;59077;-58
2023/06/28 10:26:36;;;;;;;3.72;2.25;;;;;;;;;;4357546;32;70553;-59
2023/06/28 10:29:22;;;;;;;;;;;;;;;;;;4346944;32;69561;-60
2023/06/28 10:32:10;;;;;;;3.05;2.22;;;;;;;;;;4367886;32;68073;-58
2023/06/28 10:35:00;;;;;;;7.00;2.80;;;;;;;;;;4357098;32;59690;-58
2023/06/28 10:37:47;;;;;;;5.78;2.53;;;;;;;;;;4367363;32;69410;-58
2023/06/28 10:40:33;;;;;;;6.37;2.92;;;;;;;;;;4367494;32;69534;-57
2023/06/28 10:43:24;;;;;;;6.05;3.30;;;;;;;;;;4356797;32;68447;-58
2023/06/28 10:46:29;;;;;;;3.37;2.47;;;;;;;;;;4356899;32;70704;-59
2023/06/28 10:49:15;;;;;;;4.12;2.30;;;;;;;;;;4367754;32;65081;-59
2023/06/28 10:52:02;;;;;;;;;;;;;;;;;;4346893;32;67486;-59
2023/06/28 10:54:49;;;;;;;3.47;2.35;;;;;;;;;;4368163;32;59539;-59
2023/06/28 10:57:39;;;;;;;3.95;2.20;;;;;;;;;;4346455;32;71491;-59
2023/06/28 11:00:41;;;;;;;3.53;2.20;;;;;;;;;;4369308;32;66075;-59
2023/06/28 11:03:41;;;;;;;3.55;2.50;;;;;;;;;;4360662;32;67570;-58
2023/06/28 11:06:28;;;;;;;5.68;2.45;;;;;;;;;;4367643;32;58963;-59
2023/06/28 11:09:17;;;;;;;4.53;2.40;;;;;;;;;;4356573;32;70333;-57
2023/06/28 11:12:07;;;;;;;4.90;2.80;;;;;;;;;;4370321;32;68023;-58
2023/06/28 11:15:27;;;;;;;4.18;2.58;;;;;;;;;;4386689;32;67926;-58
2023/06/28 11:18:19;;;;;;;3.08;2.30;;;;;;;;;;4356129;32;70789;-59
2023/06/28 11:21:09;;;;;;;3.45;2.35;;;;;;;;;;4376142;32;66853;-58
2023/06/28 11:23:56;;;;;;;5.43;2.70;;;;;;;;;;4386779;32;67955;-59
2023/06/28 11:26:43;;;;;;;3.00;2.25;;;;;;;;;;4386781;32;67038;-58
2023/06/28 11:29:29;;;;;;;;;;;;;;;;;;4386986;32;71405;-59
2023/06/28 11:32:24;;;;;;;3.22;2.12;;;;;;;;;;4386098;32;66895;-60
2023/06/28 11:35:12;;;;;;;3.62;2.40;;;;;;;;;;4376215;32;66874;-59
2023/06/28 11:37:59;;;;;;;3.42;2.40;;;;;;;;;;4397445;32;58910;-59
2023/06/28 11:40:46;;;;;;;2.83;1.83;;;;;;;;;;4397124;32;70556;-58
2023/06/28 11:43:32;;;;;;;4.07;2.37;;;;;;;;;;4386183;32;69374;-58
2023/06/28 11:46:21;;;;;;;3.12;2.08;;;;;;;;;;4386801;32;67881;-59
2023/06/28 11:49:08;;;;;;;3.47;2.20;;;;;;;;;;4375675;32;72151;-59
2023/06/28 11:51:55;;;;;;;3.83;2.53;;;;;;;;;;4376019;32;69673;-59
2023/06/28 11:54:43;;;;;;;3.40;2.35;;;;;;;;;;4376915;32;68471;-59
2023/06/28 11:57:29;;;;;;;2.85;2.28;;;;;;;;;;4386876;32;68077;-59
2023/06/28 12:00:18;;;;;;;3.90;2.35;;;;;;;;;;4375936;32;72077;-59
2023/06/28 12:03:05;;;;;;;4.03;2.58;;;;;;;;;;4386226;32;67423;-59
2023/06/28 12:05:55;;;;;;;2.80;2.15;;;;;;;;;;4375928;32;67957;-58
2023/06/28 12:08:42;;;;;;;5.30;2.35;;;;;;;;;;4375805;32;58960;-58
2023/06/28 12:11:28;;;;;;;;;;;;;;;;;;4386149;32;69550;-59
2023/06/28 12:14:15;;;;;;;4.05;2.20;;;;;;;;;;4396862;32;68474;-59
2023/06/28 12:17:03;;;;;;;4.32;2.05;;;;;;;;;;4386156;32;67915;-59
2023/06/28 12:19:52;;;;;;;3.92;2.50;;;;;;;;;;4386161;32;59216;-60
2023/06/28 12:22:44;;;;;;;4.35;2.78;;;;;;;;;;4386311;32;70764;-58
2023/06/28 12:25:31;;;;;;;4.45;2.30;;;;;;;;;;4386150;32;69233;-58
2023/06/28 12:28:18;;;;;;;4.00;2.70;;;;;;;;;;4396036;32;67356;-58
2023/06/28 12:31:04;;;;;;;3.35;2.28;;;;;;;;;;4396661;32;71643;-58
2023/06/28 12:33:55;;;;;;;3.30;2.10;;;;;;;;;;4376514;32;65883;-58
2023/06/28 12:36:42;;;;;;;4.50;2.50;;;;;;;;;;4396527;32;67688;-59
2023/06/28 12:39:32;;;;;;;3.80;2.20;;;;;;;;;;4386184;32;59250;-59
2023/06/28 12:42:20;;;;;;;3.55;2.53;;;;;;;;;;4374799;32;72215;-58
2023/06/28 12:45:07;;;;;;;3.08;2.50;;;;;;;;;;4375225;32;64775;-60
2023/06/28 12:47:55;;;;;;;4.55;2.25;;;;;;;;;;4396253;32;67492;-59
2023/06/28 12:50:42;;;;;;;4.57;2.60;;;;;;;;;;4386369;32;60188;-59
2023/06/28 12:53:28;;;;;;;4.03;2.22;;;;;;;;;;4396783;32;69790;-58
2023/06/28 12:56:15;;;;;;;;;;;;;;;;;;4388906;32;69213;-58
2023/06/28 12:59:02;;;;;;;3.33;2.53;;;;;;;;;;4399156;32;68330;-59
2023/06/28 13:01:48;;;;;;;;;;;;;;;;;;4402912;32;72190;-60
2023/06/28 13:04:36;;;;;;;3.40;2.53;;;;;;;;;;4401248;32;69284;-59
2023/06/28 13:07:23;;;;;;;3.72;2.37;;;;;;;;;;4399280;32;68023;-59
2023/06/28 13:10:10;;;;;;;4.07;2.83;;;;;;;;;;4388434;32;66828;-58
2023/06/28 13:12:57;;;;;;;3.72;2.35;;;;;;;;;;4366023;32;72406;-60
2023/06/28 13:15:43;;;;;;;3.80;2.65;;;;;;;;;;4399193;32;66075;-59
2023/06/28 13:18:30;;;;;;;4.07;2.40;;;;;;;;;;4398453;32;67823;-59
2023/06/28 13:21:18;;;;;;;3.70;2.50;;;;;;;;;;4377131;32;60287;-58
2023/06/28 13:24:05;;;;;;;2.67;2.17;;;;;;;;;;4376636;32;68843;-59
2023/06/28 13:26:52;;;;;;;3.92;2.25;;;;;;;;;;4377587;32;69632;-59
2023/06/28 13:29:38;;;;;;;3.70;2.40;;;;;;;;;;4388186;32;68204;-58
2023/06/28 13:32:25;;;;;;;2.78;2.37;;;;;;;;;;4388474;32;59210;-59
2023/06/28 13:35:12;;;;;;;5.00;2.50;;;;;;;;;;4388345;32;70291;-60
2023/06/28 13:37:59;;;;;;;2.65;2.20;;;;;;;;;;4377405;32;69313;-59
2023/06/28 13:40:46;;;;;;;3.17;2.08;;;;;;;;;;4389182;32;67179;-60
2023/06/28 13:43:33;;;;;;;3.35;2.10;;;;;;;;;;4377737;32;70485;-58
2023/06/28 13:46:20;;;;;;;;;;;;;;;;;;4388402;32;65966;-59
2023/06/28 13:49:07;;;;;;;6.35;3.22;;;;;;;;;;4400138;32;67273;-58
2023/06/28 13:51:54;;;;;;;3.87;2.33;;;;;;;;;;4400451;32;60021;-59
2023/06/28 13:54:40;;;;;;;;;;;;;;;;;;4392426;32;71767;-58
2023/06/28 13:57:27;;;;;;;5.15;2.92;;;;;;;;;;4401726;32;64943;-59
2023/06/28 14:00:13;;;;;;;;;;;;;;;;;;4402345;32;67993;-59
2023/06/28 14:03:00;;;;;;;3.50;2.30;;;;;;;;;;4389719;32;60024;-58
2023/06/28 14:05:47;;;;;;;2.97;2.20;;;;;;;;;;4398163;32;70389;-58
2023/06/28 14:08:34;;;;;;;3.67;2.15;;;;;;;;;;4398583;32;68502;-59
2023/06/28 14:11:20;;;;;;;4.78;2.30;;;;;;;;;;4365672;32;68442;-59
2023/06/28 14:14:07;;;;;;;4.60;2.10;;;;;;;;;;4387530;32;71611;-59
2023/06/28 14:16:54;;;;;;;;;;;;;;;;;;4400393;32;65043;-58
2023/06/28 14:19:43;;;;;;;2.92;2.12;;;;;;;;;;4399849;32;69454;-59
2023/06/28 14:22:30;;;;;;;2.80;2.10;;;;;;;;;;4387332;32;68772;-59
2023/06/28 14:25:18;;;;;;;3.30;2.20;;;;;;;;;;4386663;32;72530;-60
2023/06/28 14:28:04;;;;;;;4.30;2.30;;;;;;;;;;4388540;32;65980;-60
2023/06/28 14:30:51;;;;;;;2.85;2.25;;;;;;;;;;4387741;32;66715;-59
2023/06/28 14:33:46;;;;;;;3.62;2.45;;;;;;;;;;4377547;32;57671;-59
2023/06/28 14:36:32;;;;;;;2.60;2.10;;;;;;;;;;4397871;32;70489;-59
2023/06/28 14:39:19;;;;;;;;;;;;;;;;;;4397797;32;69960;-58
2023/06/28 14:42:06;;;;;;;3.78;2.42;;;;;;;;;;4399526;32;68104;-59
2023/06/28 14:44:52;;;;;;;;;;;;;;;;;;4387953;32;60233;-58
2023/06/28 14:47:39;;;;;;;2.22;1.52;;;;;;;;;;4387448;32;69070;-59
2023/06/28 14:50:26;;;;;;;4.45;2.15;;;;;;;;;;4387241;32;69018;-60
2023/06/28 14:53:12;;;;;;;;;;;;;;;;;;4387559;32;66639;-58
2023/06/28 14:55:58;;;;;;;4.28;2.50;;;;;;;;;;4386773;32;71674;-59
2023/06/28 14:58:46;;;;;;;3.90;2.42;;;;;;;;;;4387722;32;65214;-59
2023/06/28 15:01:34;;;;;;;3.37;2.37;;;;;;;;;;4367903;32;69009;-58
2023/06/28 15:04:20;;;;;;;4.75;2.42;;;;;;;;;;4376467;32;60387;-59
2023/06/28 15:07:07;;;;;;;6.53;3.35;;;;;;;;;;4386690;32;70287;-59
2023/06/28 15:09:53;;;;;;;;;;;;;;;;;;4375967;32;65902;-59
2023/06/28 15:12:40;;;;;;;3.67;2.37;;;;;;;;;;4386829;32;68239;-59
2023/06/28 15:15:28;;;;;;;;;;;;;;;;;;4399734;32;60190;-59
2023/06/28 15:18:15;;;;;;;2.78;2.20;;;;;;;;;;4386575;32;70338;-59
2023/06/28 15:21:02;;;;;;;4.80;2.30;;;;;;;;;;4365063;32;69873;-60
2023/06/28 15:23:48;;;;;;;;;;;;;;;;;;4366178;32;68193;-59
2023/06/28 15:26:36;;;;;;;3.12;2.05;;;;;;;;;;4399691;32;71661;-58
2023/06/28 15:29:22;;;;;;;4.45;2.25;;;;;;;;;;4397779;32;65622;-61
2023/06/28 15:32:09;;;;;;;2.22;1.83;;;;;;;;;;4386297;32;69699;-59
2023/06/28 15:34:56;;;;;;;;;;;;;;;;;;4376476;32;66585;-59
2023/06/28 15:37:43;;;;;;;3.78;2.35;;;;;;;;;;4385949;32;72766;-60
2023/06/28 15:40:31;;;;;;;4.28;2.30;;;;;;;;;;4376168;32;66200;-58
2023/06/28 15:43:19;;;;;;;4.32;2.25;;;;;;;;;;4397027;32;69417;-59
2023/06/28 15:46:05;;;;;;;3.03;2.08;;;;;;;;;;4376616;32;60805;-60
2023/06/28 15:48:52;;;;;;;3.33;2.20;;;;;;;;;;4397135;32;70140;-59
2023/06/28 15:51:39;;;;;;;3.60;2.25;;;;;;;;;;4396665;32;69766;-59
2023/06/28 15:54:25;;;;;;;4.07;2.28;;;;;;;;;;4396909;32;66704;-60
2023/06/28 15:57:12;;;;;;;;;;;;;;;;;;4375505;32;60959;-59
2023/06/28 15:59:59;;;;;;;3.58;2.47;;;;;;;;;;4385788;32;71421;-59
2023/06/28 16:02:48;;;;;;;;;;;;;;;;;;4364687;32;69763;-59
2023/06/28 16:05:35;;;;;;;2.87;2.12;;;;;;;;;;4397356;32;67517;-58
2023/06/28 16:08:21;;;;;;;;;;;;;;;;;;4386182;32;72476;-59
2023/06/28 16:11:08;;;;;;;2.90;2.22;;;;;;;;;;4396779;32;65938;-59
2023/06/28 16:13:56;;;;;;;3.58;2.30;;;;;;;;;;4385841;32;67681;-59
2023/06/28 16:16:43;;;;;;;3.42;2.40;;;;;;;;;;4397307;32;60335;-59
2023/06/28 16:19:30;;;;;;;3.53;2.33;;;;;;;;;;4385204;32;71288;-58
2023/06/28 16:22:17;;;;;;;3.95;2.28;;;;;;;;;;4385699;32;67222;-59
2023/06/28 16:25:03;;;;;;;;;;;;;;;;;;4385743;32;68384;-58
2023/06/28 16:27:51;;;;;;;5.57;2.35;;;;;;;;;;4386612;32;58843;-59
2023/06/28 16:30:37;;;;;;;3.87;2.37;;;;;;;;;;4388902;32;69543;-59
2023/06/28 16:33:24;;;;;;;;;;;;;;;;;;4399875;32;69435;-59
2023/06/28 16:36:10;;;;;;;4.22;2.50;;;;;;;;;;4388325;32;68214;-58
2023/06/28 16:38:57;;;;;;;3.03;2.42;;;;;;;;;;4398731;32;71727;-58
2023/06/28 16:41:43;;;;;;;;;;;;;;;;;;4389061;32;65677;-59
2023/06/28 16:44:30;;;;;;;4.35;2.85;;;;;;;;;;4389046;32;67998;-59
2023/06/28 16:47:17;;;;;;;;;;;;;;;;;;4389334;32;67693;-59
2023/06/28 16:50:04;;;;;;;4.25;2.87;;;;;;;;;;4400710;32;72109;-58
2023/06/28 16:52:50;;;;;;;5.78;2.67;;;;;;;;;;4389080;32;66062;-59
2023/06/28 16:55:37;;;;;;;;;;;;;;;;;;4377943;32;68386;-59
2023/06/28 16:58:23;;;;;;;4.00;2.37;;;;;;;;;;4399753;32;59765;-59
2023/06/28 17:01:10;;;;;;;5.25;2.50;;;;;;;;;;4369755;32;68217;-59
2023/06/28 17:03:57;;;;;;;;;;;;;;;;;;4379498;32;69326;-59